Time;durP1;ratioP1;P1;durP2;ratioP2;P2;SDS_P1;SDS_P2;PMS_P1;PMS_P2;Temp;Humidity;BMP_temperature;BMP_pressure;BME280_temperature;BME280_humidity;BME280_pressure;Samples;Min_cycle;Max_cycle;Signal;HPM_P1;HPM_P2
2023/05/27 00:00:49;;;;;;;;;;;;;;;;;;5111925;28;1929;-60
2023/05/27 00:03:16;;;;;;;;;;;;;;;;;;5112036;28;1838;-53
2023/05/27 00:05:44;;;;;;;;;;;;;;;;;;5111791;28;1783;-58
2023/05/27 00:08:12;;;;;;;;;;;;;;;;;;5112144;28;1985;-64
2023/05/27 00:10:39;;;;;;;;;;;;;;;;;;5111959;28;2136;-60
2023/05/27 00:13:06;;;;;;;;;;;;;;;;;;5094128;28;1635;-59
2023/05/27 00:15:33;;;;;;;;;;;;;;;;;;5093584;28;1976;-62
2023/05/27 00:18:01;;;;;;;;;;;;;;;;;;5111602;28;2005;-60
2023/05/27 00:20:32;;;;;;;;;;;;;;;;;;5111836;28;1978;-58
2023/05/27 00:23:00;;;;;;;;;;;;;;;;;;5111836;28;2375;-59
2023/05/27 00:25:29;;;;;;;;;;;;;;;;;;5111776;28;1515;-58
2023/05/27 00:27:56;;;;;;;;;;;;;;;;;;5111602;28;2127;-53
2023/05/27 00:30:24;;;;;;;;;;;;;;;;;;5111662;28;1967;-62
2023/05/27 00:32:52;;;;;;;;;;;;;;;;;;5093052;28;1735;-61
2023/05/27 00:35:20;;;;;;;;;;;;;;;;;;5111370;28;1982;-62
2023/05/27 00:37:47;;;;;;;;;;;;;;;;;;5111347;28;2119;-61
2023/05/27 00:40:15;;;;;;;;;;;;;;;;;;5111555;28;1933;-57
2023/05/27 00:42:42;;;;;;;;;;;;;;;;;;5111870;28;1889;-56
2023/05/27 00:45:10;;;;;;;;;;;;;;;;;;5112013;28;1974;-60
2023/05/27 00:47:37;;;;;;;;;;;;;;;;;;5111545;28;1993;-59
2023/05/27 00:50:05;;;;;;;;;;;;;;;;;;5092929;28;1904;-63
2023/05/27 00:52:33;;;;;;;;;;;;;;;;;;5111390;28;1831;-61
2023/05/27 00:55:00;;;;;;;;;;;;;;;;;;5094644;28;1983;-56
2023/05/27 00:57:28;;;;;;;;;;;;;;;;;;5097758;28;1959;-58
2023/05/27 00:59:55;;;;;;;;;;;;;;;;;;5093162;28;1903;-57
2023/05/27 01:02:22;;;;;;;;;;;;;;;;;;5111358;28;1914;-60
2023/05/27 01:04:50;;;;;;;;;;;;;;;;;;5111524;28;2132;-61
2023/05/27 01:07:35;;;;;;;;;;;;;;;;;;5111096;28;1988;-55
2023/05/27 01:10:10;;;;;;;;;;;;;;;;;;5111034;28;1624;-59
2023/05/27 01:12:43;;;;;;;;;;;;;;;;;;5092858;28;1884;-56
2023/05/27 01:15:11;;;;;;;;;;;;;;;;;;5092975;28;1946;-57
2023/05/27 01:17:42;;;;;;;;;;;;;;;;;;5092940;28;1443;-58
2023/05/27 01:20:10;;;;;;;;;;;;;;;;;;5093111;28;2029;-56
2023/05/27 01:22:41;;;;;;;;;;;;;;;;;;5113034;28;1904;-54
2023/05/27 01:25:09;;;;;;;;;;;;;;;;;;5115187;28;2148;-58
2023/05/27 01:27:40;;;;;;;;;;;;;;;;;;5114946;28;2002;-56
2023/05/27 01:30:07;;;;;;;;;;;;;;;;;;5096295;28;2155;-55
2023/05/27 01:32:40;;;;;;;;;;;;;;;;;;5096564;28;1903;-58
2023/05/27 01:35:17;;;;;;;;;;;;;;;;;;5114630;28;2063;-55
2023/05/27 01:37:45;;;;;;;;;;;;;;;;;;5115077;28;1960;-54
2023/05/27 01:40:13;;;;;;;;;;;;;;;;;;5096667;28;1158;-53
2023/05/27 01:42:41;;;;;;;;;;;;;;;;;;5114780;28;1279;-56
2023/05/27 01:45:09;;;;;;;;;;;;;;;;;;5114571;28;1218;-57
2023/05/27 01:47:37;;;;;;;;;;;;;;;;;;5114447;28;1838;-56
2023/05/27 01:50:04;;;;;;;;;;;;;;;;;;5114129;28;1900;-54
2023/05/27 01:52:32;;;;;;;;;;;;;;;;;;5096251;28;1761;-58
2023/05/27 01:55:00;;;;;;;;;;;;;;;;;;5097883;28;1990;-56
2023/05/27 01:57:29;;;;;;;;;;;;;;;;;;5096010;28;1806;-56
2023/05/27 01:59:56;;;;;;;;;;;;;;;;;;5096315;28;1819;-55
2023/05/27 02:02:23;;;;;;;;;;;;;;;;;;5095718;28;1989;-56
2023/05/27 02:04:51;;;;;;;;;;;;;;;;;;5096022;28;2036;-54
2023/05/27 02:07:18;;;;;;;;;;;;;;;;;;5096089;28;2047;-56
2023/05/27 02:09:49;;;;;;;;;;;;;;;;;;5092552;28;1892;-53
2023/05/27 02:12:17;;;;;;;;;;;;;;;;;;5092848;28;1816;-58
2023/05/27 02:14:44;;;;;;;;;;;;;;;;;;5093923;28;2019;-57
2023/05/27 02:17:14;;;;;;;;;;;;;;;;;;5093800;28;1825;-56
2023/05/27 02:19:41;;;;;;;;;;;;;;;;;;5075544;28;1885;-54
2023/05/27 02:22:10;;;;;;;;;;;;;;;;;;5093595;28;1822;-53
2023/05/27 02:24:37;;;;;;;;;;;;;;;;;;5075414;28;1782;-53
2023/05/27 02:27:05;;;;;;;;;;;;;;;;;;5075560;28;1853;-57
2023/05/27 02:29:32;;;;;;;;;;;;;;;;;;5093511;28;1361;-53
2023/05/27 02:31:59;;;;;;;;;;;;;;;;;;5092035;28;2084;-54
2023/05/27 02:34:27;;;;;;;;;;;;;;;;;;5093463;28;1779;-59
2023/05/27 02:36:55;;;;;;;;;;;;;;;;;;5092016;28;1974;-57
2023/05/27 02:39:22;;;;;;;;;;;;;;;;;;5093311;28;2007;-59
2023/05/27 02:41:50;;;;;;;;;;;;;;;;;;5091681;28;2041;-58
2023/05/27 02:44:17;;;;;;;;;;;;;;;;;;5091880;28;2089;-57
2023/05/27 02:46:44;;;;;;;;;;;;;;;;;;5091865;28;1857;-60
2023/05/27 02:49:11;;;;;;;;;;;;;;;;;;5074814;28;1926;-60
2023/05/27 02:51:39;;;;;;;;;;;;;;;;;;5092879;28;2031;-54
2023/05/27 02:54:06;;;;;;;;;;;;;;;;;;5100566;28;2138;-60
2023/05/27 02:56:33;;;;;;;;;;;;;;;;;;5113270;28;2011;-58
2023/05/27 02:59:00;;;;;;;;;;;;;;;;;;5091513;28;1751;-52
2023/05/27 03:01:28;;;;;;;;;;;;;;;;;;5092515;28;1858;-60
2023/05/27 03:03:55;;;;;;;;;;;;;;;;;;5092795;28;1819;-55
2023/05/27 03:06:22;;;;;;;;;;;;;;;;;;5091493;28;2022;-55
2023/05/27 03:08:49;;;;;;;;;;;;;;;;;;5091612;28;1918;-55
2023/05/27 03:11:16;;;;;;;;;;;;;;;;;;5091511;28;1585;-59
2023/05/27 03:13:44;;;;;;;;;;;;;;;;;;5092821;28;1858;-58
2023/05/27 03:16:12;;;;;;;;;;;;;;;;;;5091463;28;2055;-59
2023/05/27 03:18:39;;;;;;;;;;;;;;;;;;5092639;28;1830;-62
2023/05/27 03:21:07;;;;;;;;;;;;;;;;;;5091154;28;2156;-59
2023/05/27 03:23:34;;;;;;;;;;;;;;;;;;5092222;28;1991;-61
2023/05/27 03:26:04;;;;;;;;;;;;;;;;;;5093778;28;1977;-56
2023/05/27 03:28:32;;;;;;;;;;;;;;;;;;5112712;28;1435;-58
2023/05/27 03:30:59;;;;;;;;;;;;;;;;;;5112533;28;2066;-59
2023/05/27 03:33:39;;;;;;;;;;;;;;;;;;5094169;28;2035;-62
2023/05/27 03:36:07;;;;;;;;;;;;;;;;;;5094108;28;2079;-54
2023/05/27 03:38:34;;;;;;;;;;;;;;;;;;5094170;28;2042;-52
2023/05/27 03:41:02;;;;;;;;;;;;;;;;;;5112554;28;2036;-53
2023/05/27 03:43:29;;;;;;;;;;;;;;;;;;5094099;28;2077;-55
2023/05/27 03:45:56;;;;;;;;;;;;;;;;;;5093584;28;1991;-57
2023/05/27 03:48:24;;;;;;;;;;;;;;;;;;5093832;28;2560;-51
2023/05/27 03:50:52;;;;;;;;;;;;;;;;;;5094093;28;1638;-60
2023/05/27 03:53:19;;;;;;;;;;;;;;;;;;5094280;28;2027;-55
2023/05/27 03:55:48;;;;;;;;;;;;;;;;;;5094114;28;2162;-56
2023/05/27 03:58:16;;;;;;;;;;;;;;;;;;5098642;28;1975;-61
2023/05/27 04:00:43;;;;;;;;;;;;;;;;;;5091848;28;2015;-58
2023/05/27 04:03:14;;;;;;;;;;;;;;;;;;5090250;28;1886;-55
2023/05/27 04:05:42;;;;;;;;;;;;;;;;;;5091633;28;1932;-61
2023/05/27 04:08:09;;;;;;;;;;;;;;;;;;5090477;28;2083;-61
2023/05/27 04:10:37;;;;;;;;;;;;;;;;;;5091444;28;2422;-63
2023/05/27 04:13:04;;;;;;;;;;;;;;;;;;5090318;28;1961;-63
2023/05/27 04:15:33;;;;;;;;;;;;;;;;;;5091386;28;1971;-64
2023/05/27 04:18:01;;;;;;;;;;;;;;;;;;5091450;28;2172;-61
2023/05/27 04:20:37;;;;;;;;;;;;;;;;;;5091478;28;1733;-53
2023/05/27 04:23:05;;;;;;;;;;;;;;;;;;5090041;28;2021;-53
2023/05/27 04:25:32;;;;;;;;;;;;;;;;;;5090096;28;2047;-52
2023/05/27 04:28:06;;;;;;;;;;;;;;;;;;5089681;28;1371;-52
2023/05/27 04:30:39;;;;;;;;;;;;;;;;;;5090948;28;1794;-51
2023/05/27 04:33:19;;;;;;;;;;;;;;;;;;5089858;28;2074;-53
2023/05/27 04:35:48;;;;;;;;;;;;;;;;;;5090144;28;2184;-63
2023/05/27 04:38:20;;;;;;;;;;;;;;;;;;5091479;28;2009;-53
2023/05/27 04:40:59;;;;;;;;;;;;;;;;;;5090208;28;2020;-50
2023/05/27 04:43:42;;;;;;;;;;;;;;;;;;5089847;28;2031;-52
2023/05/27 04:46:14;;;;;;;;;;;;;;;;;;5090438;28;2084;-65
2023/05/27 04:48:44;;;;;;;;;;;;;;;;;;5089634;28;2359;-65
2023/05/27 04:51:15;;;;;;;;;;;;;;;;;;5089527;28;1954;-61
2023/05/27 04:53:42;;;;;;;;;;;;;;;;;;5093377;28;2234;-53
2023/05/27 04:56:10;;;;;;;;;;;;;;;;;;5093412;28;2080;-54
2023/05/27 04:58:39;;;;;;;;;;;;;;;;;;5093772;28;1984;-56
2023/05/27 05:01:16;;;;;;;;;;;;;;;;;;5093916;28;1961;-55
2023/05/27 05:04:02;;;;;;;;;;;;;;;;;;5094040;28;2119;-52
2023/05/27 05:06:30;;;;;;;;;;;;;;;;;;5094097;28;1978;-53
2023/05/27 05:08:57;;;;;;;;;;;;;;;;;;5095493;28;1980;-50
2023/05/27 05:11:26;;;;;;;;;;;;;;;;;;5094087;28;1661;-67
2023/05/27 05:13:53;;;;;;;;;;;;;;;;;;5095073;28;1878;-53
2023/05/27 05:16:20;;;;;;;;;;;;;;;;;;5093676;28;1993;-54
2023/05/27 05:18:48;;;;;;;;;;;;;;;;;;5093696;28;2079;-51
2023/05/27 05:21:17;;;;;;;;;;;;;;;;;;5094860;28;1704;-50
2023/05/27 05:23:44;;;;;;;;;;;;;;;;;;5094776;28;2101;-65
2023/05/27 05:26:12;;;;;;;;;;;;;;;;;;5093272;28;1939;-53
2023/05/27 05:28:41;;;;;;;;;;;;;;;;;;5093212;28;1851;-62
2023/05/27 05:31:10;;;;;;;;;;;;;;;;;;5094550;28;1575;-61
2023/05/27 05:33:37;;;;;;;;;;;;;;;;;;5092943;28;2208;-63
2023/05/27 05:36:06;;;;;;;;;;;;;;;;;;5092990;28;2191;-51
2023/05/27 05:38:56;;;;;;;;;;;;;;;;;;5086120;28;1952;-56
2023/05/27 05:41:23;;;;;;;;;;;;;;;;;;5094017;28;1836;-65
2023/05/27 05:43:51;;;;;;;;;;;;;;;;;;5092915;28;1893;-61
2023/05/27 05:46:19;;;;;;;;;;;;;;;;;;5092873;28;1534;-68
2023/05/27 05:48:46;;;;;;;;;;;;;;;;;;5092844;28;1673;-64
2023/05/27 05:51:20;;;;;;;;;;;;;;;;;;5092875;28;1745;-59
2023/05/27 05:53:52;;;;;;;;;;;;;;;;;;5094779;28;1969;-65
2023/05/27 05:56:21;;;;;;;;;;;;;;;;;;5094521;28;1977;-62
2023/05/27 05:58:49;;;;;;;;;;;;;;;;;;5091372;28;2133;-56
2023/05/27 06:01:16;;;;;;;;;;;;;;;;;;5091615;28;2041;-49
2023/05/27 06:03:44;;;;;;;;;;;;;;;;;;5091177;28;2367;-54
2023/05/27 06:06:25;;;;;;;;;;;;;;;;;;5091322;28;1899;-65
2023/05/27 06:09:10;;;;;;;;;;;;;;;;;;5092252;28;2070;-51
2023/05/27 06:11:38;;;;;;;;;;;;;;;;;;5091416;28;2068;-49
2023/05/27 06:14:06;;;;;;;;;;;;;;;;;;5091424;28;1987;-56
2023/05/27 06:16:39;;;;;;;;;;;;;;;;;;5091047;28;2099;-60
2023/05/27 06:19:08;;;;;;;;;;;;;;;;;;5092707;28;1780;-53
2023/05/27 06:21:35;;;;;;;;;;;;;;;;;;5092641;28;2093;-60
2023/05/27 06:24:22;;;;;;;;;;;;;;;;;;5081626;28;1988;-51
2023/05/27 06:26:58;;;;;;;;;;;;;;;;;;5092280;28;2082;-49
2023/05/27 06:29:25;;;;;;;;;;;;;;;;;;5091328;28;1925;-51
2023/05/27 06:31:54;;;;;;;;;;;;;;;;;;5091165;28;1728;-49
2023/05/27 06:34:22;;;;;;;;;;;;;;;;;;5090983;28;2032;-61
2023/05/27 06:36:49;;;;;;;;;;;;;;;;;;5090882;28;2100;-66
2023/05/27 06:39:17;;;;;;;;;;;;;;;;;;5091058;28;1734;-64
2023/05/27 06:41:44;;;;;;;;;;;;;;;;;;5090743;28;1843;-65
2023/05/27 06:44:29;;;;;;;;;;;;;;;;;;5096666;28;2025;-66
2023/05/27 06:47:07;;;;;;;;;;;;;;;;;;5094301;28;1839;-66
2023/05/27 06:49:34;;;;;;;;;;;;;;;;;;5094415;28;1757;-53
2023/05/27 06:52:04;;;;;;;;;;;;;;;;;;5113582;28;1816;-53
2023/05/27 06:54:44;;;;;;;;;;;;;;;;;;5080773;28;1986;-51
2023/05/27 06:57:46;;;;;;;;;;;;;;;;;;5101996;28;2028;-61
2023/05/27 07:00:19;;;;;;;;;;;;;;;;;;5094911;28;2047;-50
2023/05/27 07:03:22;;;;;;;;;;;;;;;;;;5091816;28;1927;-51
2023/05/27 07:05:51;;;;;;;;;;;;;;;;;;5094789;28;2136;-65
2023/05/27 07:08:19;;;;;;;;;;;;;;;;;;5094588;28;1811;-67
2023/05/27 07:10:55;;;;;;;;;;;;;;;;;;5112945;28;1970;-65
2023/05/27 07:13:23;;;;;;;;;;;;;;;;;;5094588;28;2033;-58
2023/05/27 07:15:52;;;;;;;;;;;;;;;;;;5094759;28;2141;-66
2023/05/27 07:18:19;;;;;;;;;;;;;;;;;;5112943;28;1836;-66
2023/05/27 07:20:48;;;;;;;;;;;;;;;;;;5093875;28;2048;-54
2023/05/27 07:23:16;;;;;;;;;;;;;;;;;;5094385;28;1749;-51
2023/05/27 07:25:51;;;;;;;;;;;;;;;;;;5113208;28;1536;-56
2023/05/27 07:28:23;;;;;;;;;;;;;;;;;;5094331;28;2254;-50
2023/05/27 07:30:59;;;;;;;;;;;;;;;;;;5094443;28;1867;-53
2023/05/27 07:33:27;;;;;;;;;;;;;;;;;;5094058;28;1944;-55
2023/05/27 07:35:54;;;;;;;;;;;;;;;;;;5094126;28;1848;-53
2023/05/27 07:38:21;;;;;;;;;;;;;;;;;;5112479;28;1995;-51
2023/05/27 07:40:49;;;;;;;;;;;;;;;;;;5112418;28;2077;-54
2023/05/27 07:43:17;;;;;;;;;;;;;;;;;;5094273;28;2155;-65
2023/05/27 07:45:47;;;;;;;;;;;;;;;;;;5093991;28;1773;-52
2023/05/27 07:48:14;;;;;;;;;;;;;;;;;;5093922;28;1835;-53
2023/05/27 07:50:42;;;;;;;;;;;;;;;;;;5093844;28;1816;-52
2023/05/27 07:53:15;;;;;;;;;;;;;;;;;;5093842;28;2012;-54
2023/05/27 07:55:42;;;;;;;;;;;;;;;;;;5093490;28;2105;-50
2023/05/27 07:58:09;;;;;;;;;;;;;;;;;;5099545;28;2093;-52
2023/05/27 08:01:05;;;;;;;;;;;;;;;;;;5090333;28;1837;-53
2023/05/27 08:03:32;;;;;;;;;;;;;;;;;;5091875;28;2273;-59
2023/05/27 08:06:11;;;;;;;;;;;;;;;;;;5091803;28;1948;-52
2023/05/27 08:09:01;;;;;;;;;;;;;;;;;;5083431;28;1916;-49
2023/05/27 08:12:01;;;;;;;;;;;;;;;;;;5079278;28;1976;-53
2023/05/27 08:14:46;;;;;;;;;;;;;;;;;;5089930;28;1913;-54
2023/05/27 08:17:31;;;;;;;;;;;;;;;;;;5089948;28;2050;-52
2023/05/27 08:20:19;;;;;;;;;;;;;;;;;;5083999;28;1882;-53
2023/05/27 08:22:57;;;;;;;;;;;;;;;;;;5091266;28;1970;-51
2023/05/27 08:25:43;;;;;;;;;;;;;;;;;;5091119;28;2027;-50
2023/05/27 08:28:11;;;;;;;;;;;;;;;;;;5091466;28;2025;-53
2023/05/27 08:30:51;;;;;;;;;;;;;;;;;;5089888;28;1890;-51
2023/05/27 08:33:26;;;;;;;;;;;;;;;;;;5089950;28;2304;-62
2023/05/27 08:35:53;;;;;;;;;;;;;;;;;;5089890;28;2179;-51
2023/05/27 08:38:21;;;;;;;;;;;;;;;;;;5089804;28;1931;-54
2023/05/27 08:40:52;;;;;;;;;;;;;;;;;;5089745;28;2024;-66
2023/05/27 08:43:21;;;;;;;;;;;;;;;;;;5089755;28;2180;-53
2023/05/27 08:45:49;;;;;;;;;;;;;;;;;;5091275;28;1994;-51
2023/05/27 08:48:17;;;;;;;;;;;;;;;;;;5089890;28;1964;-65
2023/05/27 08:50:46;;;;;;;;;;;;;;;;;;5089526;28;2038;-52
2023/05/27 08:53:13;;;;;;;;;;;;;;;;;;5105816;28;1821;-49
2023/05/27 08:55:42;;;;;;;;;;;;;;;;;;5073304;28;1936;-51
2023/05/27 08:58:12;;;;;;;;;;;;;;;;;;5082398;28;2011;-66
2023/05/27 09:00:44;;;;;;;;;;;;;;;;;;5091210;28;1651;-71
2023/05/27 09:03:23;;;;;;;;;;;;;;;;;;5073057;28;2014;-63
2023/05/27 09:05:54;;;;;;;;;;;;;;;;;;5072875;28;1960;-53
2023/05/27 09:08:22;;;;;;;;;;;;;;;;;;5091305;28;2153;-55
2023/05/27 09:10:54;;;;;;;;;;;;;;;;;;5072798;28;2109;-53
2023/05/27 09:13:28;;;;;;;;;;;;;;;;;;5091229;28;2032;-60
2023/05/27 09:16:02;;;;;;;;;;;;;;;;;;5090839;28;1989;-52
2023/05/27 09:18:35;;;;;;;;;;;;;;;;;;5091454;28;2062;-50
2023/05/27 09:21:03;;;;;;;;;;;;;;;;;;5091038;28;2355;-54
2023/05/27 09:23:30;;;;;;;;;;;;;;;;;;5090768;28;2287;-52
2023/05/27 09:25:58;;;;;;;;;;;;;;;;;;5090564;28;1619;-51
2023/05/27 09:28:26;;;;;;;;;;;;;;;;;;5090445;28;2007;-53
2023/05/27 09:31:01;;;;;;;;;;;;;;;;;;5090830;28;1782;-52
2023/05/27 09:33:31;;;;;;;;;;;;;;;;;;5090660;28;2073;-53
2023/05/27 09:35:59;;;;;;;;;;;;;;;;;;5090460;28;2026;-67
2023/05/27 09:38:33;;;;;;;;;;;;;;;;;;5094646;28;2003;-65
2023/05/27 09:41:00;;;;;;;;;;;;;;;;;;5110621;28;2016;-52
2023/05/27 09:43:28;;;;;;;;;;;;;;;;;;5112892;28;2079;-63
2023/05/27 09:45:58;;;;;;;;;;;;;;;;;;5114786;28;2202;-53
2023/05/27 09:48:26;;;;;;;;;;;;;;;;;;5114389;28;1895;-52
2023/05/27 09:50:54;;;;;;;;;;;;;;;;;;5114420;28;1978;-51
2023/05/27 09:53:24;;;;;;;;;;;;;;;;;;5111595;28;2055;-64
2023/05/27 09:55:55;;;;;;;;;;;;;;;;;;5094177;28;1638;-52
2023/05/27 09:58:24;;;;;;;;;;;;;;;;;;5108352;28;1976;-54
2023/05/27 10:00:51;;;;;;;;;;;;;;;;;;5114605;28;1887;-65
2023/05/27 10:03:22;;;;;;;;;;;;;;;;;;5095708;28;1995;-52
2023/05/27 10:05:50;;;;;;;;;;;;;;;;;;5114079;28;1957;-52
2023/05/27 10:08:18;;;;;;;;;;;;;;;;;;5114502;28;2089;-55
2023/05/27 10:10:52;;;;;;;;;;;;;;;;;;5114354;28;1953;-53
2023/05/27 10:13:20;;;;;;;;;;;;;;;;;;5114046;28;1838;-52
2023/05/27 10:15:50;;;;;;;;;;;;;;;;;;5114543;28;2008;-54
2023/05/27 10:18:25;;;;;;;;;;;;;;;;;;5114240;28;1971;-52
2023/05/27 10:20:53;;;;;;;;;;;;;;;;;;5114059;28;2093;-65
2023/05/27 10:23:27;;;;;;;;;;;;;;;;;;5113933;28;2063;-56
2023/05/27 10:25:56;;;;;;;;;;;;;;;;;;5114222;28;1937;-64
2023/05/27 10:28:31;;;;;;;;;;;;;;;;;;5113564;28;2028;-51
2023/05/27 10:31:05;;;;;;;;;;;;;;;;;;5114091;28;2071;-52
2023/05/27 10:33:40;;;;;;;;;;;;;;;;;;5113826;28;1859;-63
2023/05/27 10:36:11;;;;;;;;;;;;;;;;;;5095561;28;1964;-54
2023/05/27 10:38:39;;;;;;;;;;;;;;;;;;5113591;28;1927;-64
2023/05/27 10:41:06;;;;;;;;;;;;;;;;;;5113631;28;1721;-64
2023/05/27 10:43:34;;;;;;;;;;;;;;;;;;5113624;28;2074;-65
2023/05/27 10:46:03;;;;;;;;;;;;;;;;;;5113885;28;1991;-64
2023/05/27 10:48:31;;;;;;;;;;;;;;;;;;5113561;28;2050;-60
2023/05/27 10:50:59;;;;;;;;;;;;;;;;;;5113599;28;2091;-50
2023/05/27 10:53:27;;;;;;;;;;;;;;;;;;5113316;28;1833;-53
2023/05/27 10:55:56;;;;;;;;;;;;;;;;;;5112263;28;2053;-53
2023/05/27 10:58:26;;;;;;;;;;;;;;;;;;5098729;28;2067;-57
2023/05/27 11:00:58;;;;;;;;;;;;;;;;;;5093459;28;1857;-53
2023/05/27 11:03:27;;;;;;;;;;;;;;;;;;5093026;28;2079;-50
2023/05/27 11:06:01;;;;;;;;;;;;;;;;;;5093096;28;1916;-60
2023/05/27 11:08:29;;;;;;;;;;;;;;;;;;5093013;28;1814;-53
2023/05/27 11:10:59;;;;;;;;;;;;;;;;;;5092947;28;1845;-52
2023/05/27 11:13:33;;;;;;;;;;;;;;;;;;5091486;28;2024;-53
2023/05/27 11:16:01;;;;;;;;;;;;;;;;;;5092650;28;1903;-53
2023/05/27 11:18:35;;;;;;;;;;;;;;;;;;5092800;28;1977;-62
2023/05/27 11:21:04;;;;;;;;;;;;;;;;;;5092577;28;2056;-58
2023/05/27 11:23:35;;;;;;;;;;;;;;;;;;5092707;28;2155;-51
2023/05/27 11:26:02;;;;;;;;;;;;;;;;;;5092523;28;2242;-63
2023/05/27 11:28:29;;;;;;;;;;;;;;;;;;5092100;28;1828;-56
2023/05/27 11:31:03;;;;;;;;;;;;;;;;;;5092470;28;1925;-62
2023/05/27 11:33:33;;;;;;;;;;;;;;;;;;5092652;28;2011;-54
2023/05/27 11:36:06;;;;;;;;;;;;;;;;;;5092069;28;1951;-64
2023/05/27 11:38:52;;;;;;;;;;;;;;;;;;5092257;28;2071;-50
2023/05/27 11:41:20;;;;;;;;;;;;;;;;;;5092222;28;2061;-65
2023/05/27 11:43:54;;;;;;;;;;;;;;;;;;5091914;28;2005;-53
2023/05/27 11:46:35;;;;;;;;;;;;;;;;;;5092226;28;1871;-49
2023/05/27 11:49:03;;;;;;;;;;;;;;;;;;5092072;28;2375;-50
2023/05/27 11:51:33;;;;;;;;;;;;;;;;;;5092226;28;1885;-58
2023/05/27 11:54:03;;;;;;;;;;;;;;;;;;5100111;28;1801;-50
2023/05/27 11:56:31;;;;;;;;;;;;;;;;;;5112349;28;1919;-63
2023/05/27 11:58:58;;;;;;;;;;;;;;;;;;5092652;28;2095;-49
2023/05/27 12:01:26;;;;;;;;;;;;;;;;;;5091274;28;1973;-52
2023/05/27 12:03:53;;;;;;;;;;;;;;;;;;5091864;28;1753;-63
2023/05/27 12:06:20;;;;;;;;;;;;;;;;;;5091596;28;2008;-54
2023/05/27 12:08:48;;;;;;;;;;;;;;;;;;5091518;28;1954;-52
2023/05/27 12:11:15;;;;;;;;;;;;;;;;;;5091795;28;1904;-51
2023/05/27 12:13:42;;;;;;;;;;;;;;;;;;5091687;28;2244;-50
2023/05/27 12:16:10;;;;;;;;;;;;;;;;;;5091453;28;2075;-65
2023/05/27 12:18:38;;;;;;;;;;;;;;;;;;5091542;28;2238;-52
2023/05/27 12:21:06;;;;;;;;;;;;;;;;;;5108127;28;2157;-53
2023/05/27 12:23:36;;;;;;;;;;;;;;;;;;5111631;28;2072;-52
2023/05/27 12:26:03;;;;;;;;;;;;;;;;;;5111434;28;2104;-54
2023/05/27 12:28:30;;;;;;;;;;;;;;;;;;5111636;28;2217;-53
2023/05/27 12:30:57;;;;;;;;;;;;;;;;;;5111665;28;1874;-49
2023/05/27 12:33:25;;;;;;;;;;;;;;;;;;5111937;28;2075;-48
2023/05/27 12:35:52;;;;;;;;;;;;;;;;;;5093716;28;1953;-59
2023/05/27 12:38:20;;;;;;;;;;;;;;;;;;5111505;28;1916;-66
2023/05/27 12:40:48;;;;;;;;;;;;;;;;;;5111663;28;2048;-59
2023/05/27 12:43:15;;;;;;;;;;;;;;;;;;5111683;28;1955;-65
2023/05/27 12:45:43;;;;;;;;;;;;;;;;;;5111380;28;1927;-65
2023/05/27 12:48:12;;;;;;;;;;;;;;;;;;5111354;28;1432;-54
2023/05/27 12:50:40;;;;;;;;;;;;;;;;;;5111248;28;1381;-52
2023/05/27 12:53:08;;;;;;;;;;;;;;;;;;5111366;28;2141;-55
2023/05/27 12:55:36;;;;;;;;;;;;;;;;;;5111546;28;1960;-56
2023/05/27 12:58:03;;;;;;;;;;;;;;;;;;5099578;28;2218;-60
2023/05/27 13:00:34;;;;;;;;;;;;;;;;;;5091163;28;1900;-55
2023/05/27 13:03:01;;;;;;;;;;;;;;;;;;5090684;28;2003;-62
2023/05/27 13:05:29;;;;;;;;;;;;;;;;;;5091330;28;2012;-55
2023/05/27 13:08:01;;;;;;;;;;;;;;;;;;5091370;28;2124;-52
2023/05/27 13:10:29;;;;;;;;;;;;;;;;;;5091387;28;1573;-51
2023/05/27 13:12:58;;;;;;;;;;;;;;;;;;5091433;28;2159;-53
2023/05/27 13:15:26;;;;;;;;;;;;;;;;;;5090987;28;2008;-51
2023/05/27 13:17:55;;;;;;;;;;;;;;;;;;5092362;28;2108;-63
2023/05/27 13:20:23;;;;;;;;;;;;;;;;;;5095162;28;1832;-50
2023/05/27 13:22:52;;;;;;;;;;;;;;;;;;5094908;28;1882;-50
2023/05/27 13:25:20;;;;;;;;;;;;;;;;;;5094419;28;1685;-53
2023/05/27 13:27:47;;;;;;;;;;;;;;;;;;5094600;28;2069;-50
2023/05/27 13:30:15;;;;;;;;;;;;;;;;;;5094427;28;1736;-52
2023/05/27 13:32:43;;;;;;;;;;;;;;;;;;5094676;28;1948;-53
2023/05/27 13:35:11;;;;;;;;;;;;;;;;;;5094599;28;1937;-52
2023/05/27 13:37:38;;;;;;;;;;;;;;;;;;5094316;28;1947;-59
2023/05/27 13:40:06;;;;;;;;;;;;;;;;;;5094207;28;1844;-59
2023/05/27 13:42:34;;;;;;;;;;;;;;;;;;5094288;28;1654;-62
2023/05/27 13:45:02;;;;;;;;;;;;;;;;;;5094411;28;2228;-61
2023/05/27 13:47:29;;;;;;;;;;;;;;;;;;5094217;28;1783;-65
2023/05/27 13:49:56;;;;;;;;;;;;;;;;;;5093979;28;1857;-52
2023/05/27 13:52:23;;;;;;;;;;;;;;;;;;5094736;28;1916;-52
2023/05/27 13:54:51;;;;;;;;;;;;;;;;;;5109697;28;2024;-64
2023/05/27 13:57:18;;;;;;;;;;;;;;;;;;5109283;28;1909;-52
2023/05/27 13:59:45;;;;;;;;;;;;;;;;;;5094631;28;2204;-54
2023/05/27 14:02:12;;;;;;;;;;;;;;;;;;5094563;28;2051;-65
2023/05/27 14:04:39;;;;;;;;;;;;;;;;;;5094264;28;2020;-53
2023/05/27 14:07:06;;;;;;;;;;;;;;;;;;5094302;28;1975;-65
2023/05/27 14:09:33;;;;;;;;;;;;;;;;;;5093887;28;2145;-52
2023/05/27 14:12:02;;;;;;;;;;;;;;;;;;5094491;28;2077;-67
2023/05/27 14:14:29;;;;;;;;;;;;;;;;;;5094322;28;2106;-52
2023/05/27 14:16:56;;;;;;;;;;;;;;;;;;5094183;28;1906;-51
2023/05/27 14:19:23;;;;;;;;;;;;;;;;;;5094037;28;1902;-59
2023/05/27 14:21:51;;;;;;;;;;;;;;;;;;5093792;28;2095;-64
2023/05/27 14:24:19;;;;;;;;;;;;;;;;;;5093336;28;1905;-65
2023/05/27 14:26:46;;;;;;;;;;;;;;;;;;5093771;28;2032;-64
2023/05/27 14:29:13;;;;;;;;;;;;;;;;;;5093442;28;2126;-58
2023/05/27 14:31:41;;;;;;;;;;;;;;;;;;5093143;28;1849;-58
2023/05/27 14:34:08;;;;;;;;;;;;;;;;;;5093689;28;1907;-60
2023/05/27 14:36:35;;;;;;;;;;;;;;;;;;5093430;28;1684;-53
2023/05/27 14:39:05;;;;;;;;;;;;;;;;;;5093587;28;2046;-52
2023/05/27 14:41:33;;;;;;;;;;;;;;;;;;5093568;28;1932;-54
2023/05/27 14:44:04;;;;;;;;;;;;;;;;;;5093676;28;1945;-57
2023/05/27 14:46:31;;;;;;;;;;;;;;;;;;5093012;28;1932;-53
2023/05/27 14:48:58;;;;;;;;;;;;;;;;;;5092650;28;2005;-51
2023/05/27 14:51:26;;;;;;;;;;;;;;;;;;5092747;28;1859;-66
2023/05/27 14:53:53;;;;;;;;;;;;;;;;;;5100488;28;1915;-65
2023/05/27 14:56:21;;;;;;;;;;;;;;;;;;5094455;28;1968;-65
2023/05/27 14:58:48;;;;;;;;;;;;;;;;;;5095052;28;2051;-63
2023/05/27 15:01:15;;;;;;;;;;;;;;;;;;5092150;28;1926;-65
2023/05/27 15:03:43;;;;;;;;;;;;;;;;;;5092839;28;2085;-65
2023/05/27 15:06:11;;;;;;;;;;;;;;;;;;5093059;28;1940;-49
2023/05/27 15:08:38;;;;;;;;;;;;;;;;;;5092605;28;2000;-51
2023/05/27 15:11:06;;;;;;;;;;;;;;;;;;5093102;28;2024;-54
2023/05/27 15:13:33;;;;;;;;;;;;;;;;;;5093105;28;2089;-52
2023/05/27 15:16:00;;;;;;;;;;;;;;;;;;5092945;28;1915;-53
2023/05/27 15:18:28;;;;;;;;;;;;;;;;;;5092603;28;2128;-53
2023/05/27 15:20:55;;;;;;;;;;;;;;;;;;5092594;28;2101;-58
2023/05/27 15:23:22;;;;;;;;;;;;;;;;;;5106124;28;1953;-59
2023/05/27 15:25:49;;;;;;;;;;;;;;;;;;5112048;28;1795;-64
2023/05/27 15:28:17;;;;;;;;;;;;;;;;;;5112737;28;2051;-58
2023/05/27 15:30:44;;;;;;;;;;;;;;;;;;5112652;28;2027;-59
2023/05/27 15:33:12;;;;;;;;;;;;;;;;;;5112793;28;1935;-60
2023/05/27 15:35:39;;;;;;;;;;;;;;;;;;5104851;28;1660;-56
2023/05/27 15:38:06;;;;;;;;;;;;;;;;;;5105269;28;1930;-58
2023/05/27 15:40:36;;;;;;;;;;;;;;;;;;5112023;28;2055;-60
2023/05/27 15:43:03;;;;;;;;;;;;;;;;;;5112773;28;1804;-57
2023/05/27 15:45:30;;;;;;;;;;;;;;;;;;5112651;28;1951;-58
2023/05/27 15:47:57;;;;;;;;;;;;;;;;;;5112464;28;2058;-56
2023/05/27 15:50:25;;;;;;;;;;;;;;;;;;5093282;28;2078;-58
2023/05/27 15:52:52;;;;;;;;;;;;;;;;;;5091943;28;1945;-59
2023/05/27 15:55:19;;;;;;;;;;;;;;;;;;5105831;28;1944;-58
2023/05/27 15:57:47;;;;;;;;;;;;;;;;;;5055268;28;2478;-48
2023/05/27 16:00:14;;;;;;;;;;;;;;;;;;5096496;28;1961;-58
2023/05/27 16:02:41;;;;;;;;;;;;;;;;;;5112250;28;1639;-55
2023/05/27 16:05:12;;;;;;;;;;;;;;;;;;5111604;28;2092;-51
2023/05/27 16:07:40;;;;;;;;;;;;;;;;;;5108760;28;1986;-59
2023/05/27 16:10:09;;;;;;;;;;;;;;;;;;5091557;28;1874;-58
2023/05/27 16:12:36;;;;;;;;;;;;;;;;;;5091699;28;1848;-58
2023/05/27 16:15:04;;;;;;;;;;;;;;;;;;5091415;28;2187;-60
2023/05/27 16:17:33;;;;;;;;;;;;;;;;;;5091652;28;1961;-62
2023/05/27 16:20:00;;;;;;;;;;;;;;;;;;5090962;28;2352;-54
2023/05/27 16:22:27;;;;;;;;;;;;;;;;;;5091418;28;2003;-53
2023/05/27 16:24:55;;;;;;;;;;;;;;;;;;5089486;28;1874;-54
2023/05/27 16:27:22;;;;;;;;;;;;;;;;;;5100102;28;2165;-61
2023/05/27 16:29:49;;;;;;;;;;;;;;;;;;5111100;28;1808;-61
2023/05/27 16:32:17;;;;;;;;;;;;;;;;;;5110763;28;1817;-57
2023/05/27 16:34:44;;;;;;;;;;;;;;;;;;5110864;28;1592;-60
2023/05/27 16:37:11;;;;;;;;;;;;;;;;;;5110983;28;2048;-59
2023/05/27 16:39:38;;;;;;;;;;;;;;;;;;5111349;28;2188;-62
2023/05/27 16:42:06;;;;;;;;;;;;;;;;;;5111313;28;1928;-61
2023/05/27 16:44:33;;;;;;;;;;;;;;;;;;5111703;28;2001;-63
2023/05/27 16:47:00;;;;;;;;;;;;;;;;;;5111677;28;1709;-62
2023/05/27 16:49:27;;;;;;;;;;;;;;;;;;5111218;28;1836;-63
2023/05/27 16:51:54;;;;;;;;;;;;;;;;;;5112534;28;1987;-57
2023/05/27 16:54:22;;;;;;;;;;;;;;;;;;5104301;28;1864;-52
2023/05/27 16:56:49;;;;;;;;;;;;;;;;;;5096569;28;1346;-56
2023/05/27 16:59:16;;;;;;;;;;;;;;;;;;5115603;28;1967;-58
2023/05/27 17:01:43;;;;;;;;;;;;;;;;;;5115641;28;1774;-54
2023/05/27 17:04:10;;;;;;;;;;;;;;;;;;5115799;28;1989;-55
2023/05/27 17:06:38;;;;;;;;;;;;;;;;;;5115405;28;1848;-58
2023/05/27 17:09:06;;;;;;;;;;;;;;;;;;5115676;28;1930;-55
2023/05/27 17:11:33;;;;;;;;;;;;;;;;;;5115287;28;1872;-63
2023/05/27 17:14:01;;;;;;;;;;;;;;;;;;5115453;28;1946;-57
2023/05/27 17:16:28;;;;;;;;;;;;;;;;;;5115207;28;2044;-58
2023/05/27 17:18:55;;;;;;;;;;;;;;;;;;5115429;28;1975;-62